Terminal Aerodrome Forecast
Issued by NWS

Home | Current Version | Previous Version | Text Only | Print | Product List | Glossary On
Versions: 1 2 3 4 5 6 7 8 9 10 11 12
000
FTUS44 KTSA 041738
TAFFYV
TAF
KFYV 041738Z 0418/0518 18008KT P6SM VCSH BKN100 OVC200
     FM042200 VRB03KT P6SM VCTS SCT050CB OVC100
      TEMPO 0501/0505 2SM TSRA BKN050CB
     FM050900 18003KT P6SM OVC100
     FM051300 17004KT P6SM SCT250=

USA.gov is the U.S. government's official web portal to all federal, state and local government web resources and services.